Arlington, Kentucky
Current Conditions -  °F | °C
As of 11:35 PM on Friday 31 Oct 2014 (Local Time) from KCIR Reporting Station
Clear Clear  
Wind Chill: 34°   Ceiling: Unl
Heat Index: 41°   Visibility: 10mi
Dew Point: 24°   Wind: 13mph
Humidity: 50%   Direction: 350°N
Pressure: 30.31"   Gusts: 25mph
Location:  36.79°N, 89.01°W
Report Text: KCIR 010435Z AUTO 35011G22KT 10SM CLR 05/M05 A3031 RMK AO2 T00511047
Loading
Personal Weather Stations






























Interactive Weather Map
Tropical Storm Tracking
New forecast layout! Learn more

10-Day Weather Forecast

Advertisements
Track Severe Weather on mobile